Track Матвеева Алена

Time Latitude Longitude Accuracy (66% radius in meters) Altitude (meters) Speed (km/hour) Bearing (degrees) Battery (%) GPS flag
10:19:28 60.370967 29.556354 24 30 0 279.85772705078 4 1 delete
10:19:26 60.370967 29.556354 24 30 0 279.85772705078 4 1 delete
10:19:24 60.370970 29.556450 16 43 0 279.85772705078 4 1 delete
10:19:23 60.370971 29.556483 16 45 0 279.85772705078 4 1 delete
10:19:16 60.370969 29.556546 16 52 0 279.85772705078 4 1 delete
10:19:10 60.370970 29.556613 16 62 0.16686387360096 279.8576965332 4 1 delete
10:18:57 60.370967 29.556665 12 74 0 82.528739929199 4 1 delete
10:18:49 60.370995 29.556622 12 77 0.33233505487442 76.62085723877 4 1 delete
10:18:44 60.371004 29.556517 24 83 0 57.430095672607 4 1 delete
10:18:31 60.371040 29.556563 16 92 0 57.430095672607 4 1 delete
10:18:19 60.371041 29.556568 16 101 0 57.430095672607 4 1 delete
10:18:18 60.371029 29.556521 32 107 0.83806586265564 55.832794189453 4 1 delete
10:18:16 60.371010 29.556429 16 95 0 91.61434173584 4 1 delete
10:18:09 60.370970 29.556356 16 100 0 91.61434173584 4 1 delete
10:18:05 60.370949 29.556334 16 101 0 91.61434173584 4 1 delete
10:17:52 60.370918 29.556302 16 85 0 91.61434173584 4 1 delete
10:17:36 60.370918 29.556302 16 74 0 91.61434173584 4 1 delete
10:17:34 60.370918 29.556302 24 81 0 91.61434173584 4 1 delete
10:17:25 60.370869 29.556187 12 80 0 91.61434173584 4 1 delete
10:17:23 60.370866 29.556062 12 80 0 180.87057495117 4 1 delete
10:17:13 60.370902 29.556024 12 83 0 269.15893554688 4 1 delete
10:17:02 60.370910 29.556028 16 69 0 269.15893554688 4 1 delete
10:17:00 60.370934 29.556028 16 69 0 269.15893554688 4 1 delete
10:16:57 60.370949 29.556075 16 69 0.34455612301826 269.04180908203 4 1 delete
10:16:55 60.370945 29.556181 24 70 0 139.17761230469 4 1 delete
10:16:53 60.370936 29.556291 12 60 0 139.17761230469 4 1 delete
10:16:47 60.370872 29.556436 32 59 0 139.17761230469 4 1 delete
10:16:34 60.370872 29.556436 16 59 0 139.17761230469 4 1 delete
10:16:21 60.370872 29.556436 16 45 0 139.17761230469 4 1 delete
10:16:08 60.370874 29.556466 16 67 0 139.17761230469 4 1 delete
10:15:55 60.370889 29.556447 16 63 0 157.23495483398 4 1 delete
10:15:42 60.370894 29.556445 24 78 0 157.23495483398 4 1 delete
10:15:32 60.370894 29.556445 24 93 0 157.23495483398 4 1 delete
10:15:29 60.370916 29.556422 24 101 0 157.23495483398 4 1 delete
10:15:16 60.370942 29.556433 16 83 0 192.76249694824 4 1 delete
10:15:08 60.370950 29.556432 24 75 0 192.76249694824 4 1 delete
10:15:04 60.371034 29.556479 24 75 0 290.16641235352 4 1 delete
10:14:51 60.371034 29.556479 16 64 0 290.16641235352 4 1 delete
10:14:40 60.371039 29.556477 24 73 0 290.16641235352 4 1 delete
10:14:32 60.371014 29.556437 16 70 0 290.16641235352 4 1 delete
10:14:27 60.371013 29.556399 16 69 0 290.16641235352 4 1 delete
10:14:15 60.371002 29.556372 16 63 0 320.24264526367 4 1 delete
10:14:10 60.370983 29.556370 16 65 0 319.73025512695 4 1 delete
10:14:02 60.370923 29.556364 16 63 0 358.64965820312 4 1 delete
10:13:48 60.370933 29.556386 16 72 0 358.64965820312 4 1 delete
10:13:37 60.370937 29.556384 12 70 0 358.64965820312 4 1 delete
10:13:35 60.370946 29.556393 12 66 0 358.64965820312 4 1 delete
10:13:26 60.370979 29.556429 12 71 0 358.64965820312 4 1 delete
10:13:22 60.370989 29.556454 12 69 0 358.64965820312 4 1 delete
10:13:09 60.371009 29.556448 24 73 0 358.64965820312 4 1 delete